Downstream station:
SHEF ID: JOPM7 Shoal Creek above Joplin, MO
STATION TYPE:
Regulating: Stage = 10.00, Flow = 6333
PRECIP STAGE RIV-FLOW BAT-LOAD
in ft cfs volt
Ccp-Rev Ccp-Rev Ccp-Rev Ccp-Rev
(US/Central)
04/01 00:00 0.00 3.41 689 12.60
04/01 01:00 0.00 3.39 680 12.54
04/01 02:00 0.00 3.39 680 12.54
04/01 03:00 0.00 3.40 685 12.54
04/01 04:00 0.00 3.37 672 12.48
04/01 05:00 0.00 3.36 668 12.48
04/01 06:00 0.00 3.40 685 12.48
04/01 07:00 0.00 3.35 664 12.42
04/01 08:00 0.00 3.38 676 12.48
04/01 09:00 0.00 3.31 647 12.71
04/01 10:00 0.00 3.34 659 13.53
04/01 11:00 0.01 3.37 672 14.53
04/01 12:00 0.00 3.36 668 14.06
04/01 13:00 0.00 3.38 676 13.94
04/01 14:00 0.00 3.36 668 13.83
04/01 15:00 0.00 3.35 664 13.77
04/01 16:00 0.00 3.34 659 13.65
04/01 17:00 0.00 3.34 659 13.48
04/01 18:00 0.00 3.33 655 13.48
04/01 19:00 0.00 3.35 664 12.89
04/01 20:00 0.00 3.33 655 12.65
04/01 21:00 0.00 3.34 659 12.65
04/01 22:00 0.00 3.36 668 12.60
04/01 23:00 0.00 3.33 655 12.60